Time,TemperatureF,DewpointF,PressureIn,WindDirection,WindDirectionDegrees,WindSpeedMPH,WindSpeedGustMPH,Humidity,HourlyPrecipIn,Conditions,Clouds,dailyrainin,SoftwareType,DateUTC
2013-06-10 00:02:00,61.0,54.0,29.81,East,80,0.0,0.0,79,0.00,,,0.24,,2013-06-10 05:02:00,
2013-06-10 00:12:00,61.0,54.0,29.81,East,80,0.0,0.0,79,0.00,,,0.24,,2013-06-10 05:12:00,
2013-06-10 00:22:00,61.0,55.0,29.81,ESE,104,0.0,0.0,80,0.00,,,0.24,,2013-06-10 05:22:00,
2013-06-10 00:32:00,61.0,54.0,29.81,ESE,104,0.0,0.0,79,0.00,,,0.20,,2013-06-10 05:32:00,
2013-06-10 00:42:00,61.0,54.0,29.81,ESE,104,0.0,0.0,79,0.00,,,0.20,,2013-06-10 05:42:00,
2013-06-10 00:52:00,61.0,55.0,29.81,ESE,104,0.0,0.0,81,0.00,,,0.20,,2013-06-10 05:52:00,
2013-06-10 01:02:00,61.0,55.0,29.81,East,96,3.0,3.0,81,0.00,,,0.20,,2013-06-10 06:02:00,
2013-06-10 01:12:00,61.0,55.0,29.81,East,96,3.0,3.0,81,0.00,,,0.20,,2013-06-10 06:12:00,
2013-06-10 01:22:00,61.0,55.0,29.81,East,96,3.0,3.0,81,0.00,,,0.20,,2013-06-10 06:22:00,
2013-06-10 01:32:00,61.0,55.0,29.81,East,96,3.0,3.0,81,0.00,,,0.20,,2013-06-10 06:32:00,
2013-06-10 01:42:00,61.0,55.0,29.81,East,96,3.0,3.0,81,0.00,,,0.20,,2013-06-10 06:42:00,
2013-06-10 01:53:00,61.0,56.0,29.81,ENE,73,5.0,6.0,85,0.00,,,0.20,,2013-06-10 06:53:00,
2013-06-10 02:02:00,60.0,55.0,29.81,ENE,57,0.0,0.0,85,0.00,,,0.20,,2013-06-10 07:02:00,
2013-06-10 02:12:00,60.0,55.0,29.81,ENE,57,0.0,0.0,85,0.00,,,0.20,,2013-06-10 07:12:00,
2013-06-10 02:22:00,60.0,55.0,29.81,ENE,57,0.0,0.0,85,0.00,,,0.20,,2013-06-10 07:22:00,
2013-06-10 02:32:00,60.0,56.0,29.81,ENE,60,0.0,0.0,87,0.00,,,0.20,,2013-06-10 07:32:00,
2013-06-10 02:42:00,60.0,56.0,29.81,ENE,60,0.0,0.0,87,0.00,,,0.20,,2013-06-10 07:42:00,
2013-06-10 02:52:00,61.0,57.0,29.81,NE,45,3.0,4.0,87,0.00,,,0.20,,2013-06-10 07:52:00,
2013-06-10 03:02:00,61.0,57.0,29.81,ESE,103,0.0,5.0,88,0.00,,,0.20,,2013-06-10 08:02:00,
2013-06-10 03:12:00,61.0,57.0,29.81,ESE,103,0.0,5.0,88,0.00,,,0.20,,2013-06-10 08:12:00,
2013-06-10 03:22:00,61.0,58.0,29.81,East,100,0.0,0.0,89,0.00,,,0.20,,2013-06-10 08:22:00,
2013-06-10 03:32:00,60.0,57.0,29.81,East,100,0.0,0.0,89,0.00,,,0.20,,2013-06-10 08:32:00,
2013-06-10 03:42:00,60.0,57.0,29.81,East,100,0.0,0.0,89,0.00,,,0.20,,2013-06-10 08:42:00,
2013-06-10 03:52:00,60.0,57.0,29.81,East,100,0.0,0.0,89,0.00,,,0.20,,2013-06-10 08:52:00,
2013-06-10 04:02:00,60.0,57.0,29.81,East,100,0.0,0.0,89,0.00,,,0.20,,2013-06-10 09:02:00,
2013-06-10 04:12:00,60.0,57.0,29.81,East,100,0.0,0.0,89,0.00,,,0.20,,2013-06-10 09:12:00,
2013-06-10 04:22:00,60.0,57.0,29.81,East,100,0.0,0.0,89,0.00,,,0.16,,2013-06-10 09:22:00,
2013-06-10 04:32:00,59.0,56.0,29.81,East,100,0.0,0.0,89,0.00,,,0.16,,2013-06-10 09:32:00,
2013-06-10 04:42:00,59.0,56.0,29.81,East,100,0.0,0.0,89,0.00,,,0.16,,2013-06-10 09:42:00,
2013-06-10 04:53:00,59.0,56.0,29.81,East,100,0.0,0.0,90,0.00,,,0.16,,2013-06-10 09:53:00,
2013-06-10 05:03:00,59.0,56.0,29.81,East,100,0.0,0.0,90,0.00,,,0.12,,2013-06-10 10:03:00,
2013-06-10 05:12:00,59.0,56.0,29.81,East,100,0.0,0.0,90,0.00,,,0.12,,2013-06-10 10:12:00,
2013-06-10 05:22:00,58.0,55.0,29.81,East,100,0.0,0.0,90,0.00,,,0.12,,2013-06-10 10:22:00,
2013-06-10 05:33:00,58.0,55.0,29.81,East,100,0.0,0.0,90,0.00,,,0.12,,2013-06-10 10:33:00,
2013-06-10 05:42:00,58.0,55.0,29.81,East,100,0.0,0.0,90,0.00,,,0.12,,2013-06-10 10:42:00,
2013-06-10 05:52:00,59.0,56.0,29.84,East,100,0.0,0.0,91,0.00,,,0.12,,2013-06-10 10:52:00,
2013-06-10 06:02:00,59.0,56.0,29.84,East,100,0.0,0.0,91,0.00,,,0.12,,2013-06-10 11:02:00,
2013-06-10 06:12:00,59.0,56.0,29.84,East,100,0.0,0.0,91,0.00,,,0.12,,2013-06-10 11:12:00,
2013-06-10 06:22:00,59.0,56.0,29.84,East,100,0.0,0.0,91,0.00,,,0.12,,2013-06-10 11:22:00,
2013-06-10 06:32:00,60.0,57.0,29.84,East,100,0.0,0.0,91,0.00,,,0.12,,2013-06-10 11:32:00,
2013-06-10 06:42:00,60.0,57.0,29.84,East,100,0.0,0.0,91,0.00,,,0.12,,2013-06-10 11:42:00,
2013-06-10 06:52:00,60.0,57.0,29.84,East,100,0.0,0.0,91,0.00,,,0.12,,2013-06-10 11:52:00,
2013-06-10 07:02:00,60.0,57.0,29.84,East,100,0.0,0.0,91,0.00,,,0.12,,2013-06-10 12:02:00,
2013-06-10 07:12:00,60.0,57.0,29.84,East,100,0.0,0.0,91,0.00,,,0.12,,2013-06-10 12:12:00,
2013-06-10 07:22:00,60.0,58.0,29.84,East,100,0.0,0.0,92,0.00,,,0.12,,2013-06-10 12:22:00,
2013-06-10 07:32:00,60.0,58.0,29.84,East,100,0.0,0.0,92,0.00,,,0.12,,2013-06-10 12:32:00,
2013-06-10 07:42:00,60.0,58.0,29.84,East,100,0.0,0.0,92,0.00,,,0.12,,2013-06-10 12:42:00,
2013-06-10 07:52:00,61.0,59.0,29.84,East,101,0.0,0.0,92,0.00,,,0.12,,2013-06-10 12:52:00,
2013-06-10 08:02:00,61.0,59.0,29.84,ESE,102,0.0,0.0,92,0.00,,,0.12,,2013-06-10 13:02:00,
2013-06-10 08:12:00,61.0,59.0,29.84,ESE,102,0.0,0.0,92,0.00,,,0.12,,2013-06-10 13:12:00,
2013-06-10 08:22:00,61.0,58.0,29.84,ESE,102,0.0,0.0,91,0.00,,,0.12,,2013-06-10 13:22:00,
2013-06-10 08:32:00,62.0,59.0,29.84,ESE,102,0.0,0.0,91,0.00,,,0.12,,2013-06-10 13:32:00,
2013-06-10 08:42:00,62.0,59.0,29.84,ESE,102,0.0,0.0,91,0.00,,,0.12,,2013-06-10 13:42:00,
2013-06-10 08:52:00,62.0,59.0,29.84,ESE,102,0.0,0.0,89,0.00,,,0.12,,2013-06-10 13:52:00,
2013-06-10 09:02:00,63.0,58.0,29.84,ESE,118,0.0,0.0,84,0.00,,,0.12,,2013-06-10 14:02:00,
2013-06-10 09:12:00,63.0,58.0,29.84,ESE,118,0.0,0.0,84,0.00,,,0.12,,2013-06-10 14:12:00,
2013-06-10 09:22:00,64.0,58.0,29.87,ENE,70,0.0,3.0,81,0.00,,,0.12,,2013-06-10 14:22:00,
2013-06-10 09:32:00,64.0,58.0,29.87,West,263,0.0,5.0,80,0.00,,,0.12,,2013-06-10 14:32:00,
2013-06-10 09:42:00,64.0,58.0,29.87,West,263,0.0,5.0,80,0.00,,,0.12,,2013-06-10 14:42:00,
2013-06-10 09:52:00,65.0,57.0,29.87,West,270,0.0,4.0,76,0.00,,,0.12,,2013-06-10 14:52:00,
2013-06-10 10:02:00,66.0,57.0,29.87,NW,322,0.0,0.0,73,0.00,,,0.12,,2013-06-10 15:02:00,
2013-06-10 10:12:00,66.0,57.0,29.87,NW,322,0.0,0.0,73,0.00,,,0.12,,2013-06-10 15:12:00,
2013-06-10 10:22:00,67.0,56.0,29.90,West,275,4.0,4.0,67,0.00,,,0.12,,2013-06-10 15:22:00,
2013-06-10 10:33:00,67.0,55.0,29.90,West,275,4.0,4.0,65,0.00,,,0.08,,2013-06-10 15:33:00,
2013-06-10 10:43:00,68.0,56.0,29.87,West,275,4.0,4.0,66,0.00,,,0.04,,2013-06-10 15:43:00,
2013-06-10 10:53:00,68.0,56.0,29.87,West,275,4.0,4.0,66,0.00,,,0.04,,2013-06-10 15:53:00,
2013-06-10 11:03:00,69.0,56.0,29.87,West,273,0.0,0.0,63,0.00,,,0.00,,2013-06-10 16:03:00,
2013-06-10 11:12:00,69.0,56.0,29.87,West,273,0.0,0.0,63,0.00,,,0.00,,2013-06-10 16:12:00,
2013-06-10 11:23:00,68.0,54.0,29.90,West,273,0.0,0.0,62,0.00,,,0.00,,2013-06-10 16:23:00,
2013-06-10 11:33:00,70.0,54.0,29.90,West,273,0.0,0.0,56,0.00,,,0.00,,2013-06-10 16:33:00,
2013-06-10 11:42:00,71.0,54.0,29.90,West,273,0.0,0.0,55,0.00,,,0.00,,2013-06-10 16:42:00,
2013-06-10 11:52:00,71.0,54.0,29.90,West,273,0.0,0.0,55,0.00,,,0.00,,2013-06-10 16:52:00,
2013-06-10 12:03:00,69.0,54.0,29.90,North,10,0.0,0.0,59,0.00,,,0.00,,2013-06-10 17:03:00,
2013-06-10 12:14:00,69.0,54.0,29.90,North,10,0.0,0.0,59,0.00,,,0.00,,2013-06-10 17:14:00,
2013-06-10 12:27:00,69.0,54.0,29.90,North,10,0.0,0.0,59,0.00,,,0.00,,2013-06-10 17:27:00,
2013-06-10 12:38:00,67.0,56.0,29.90,North,10,0.0,0.0,67,0.00,,,0.00,,2013-06-10 17:38:00,
2013-06-10 12:48:00,68.0,55.0,29.90,North,10,0.0,0.0,63,0.00,,,0.00,,2013-06-10 17:48:00,
2013-06-10 12:58:00,68.0,55.0,29.90,North,10,0.0,0.0,63,0.00,,,0.00,,2013-06-10 17:58:00,
2013-06-10 13:07:00,68.0,55.0,29.90,North,10,0.0,0.0,63,0.00,,,0.00,,2013-06-10 18:07:00,
2013-06-10 13:14:00,68.0,55.0,29.90,North,10,0.0,0.0,63,0.00,,,0.00,,2013-06-10 18:14:00,
2013-06-10 13:34:00,70.0,55.0,29.90,North,10,0.0,0.0,58,0.00,,,0.00,,2013-06-10 18:34:00,
2013-06-10 13:48:00,70.0,55.0,29.90,North,10,0.0,0.0,58,0.00,,,0.00,,2013-06-10 18:48:00,
2013-06-10 14:03:00,69.0,54.0,29.90,NE,41,0.0,0.0,58,0.00,,,0.00,,2013-06-10 19:03:00,
2013-06-10 14:22:00,71.0,54.0,29.87,NE,41,0.0,0.0,55,0.00,,,0.00,,2013-06-10 19:22:00,
2013-06-10 14:33:00,71.0,53.0,29.87,NE,41,0.0,0.0,53,0.00,,,0.00,,2013-06-10 19:33:00,
2013-06-10 14:42:00,77.0,53.0,29.87,NE,41,0.0,0.0,44,0.00,,,0.00,,2013-06-10 19:42:00,
2013-06-10 14:53:00,77.0,53.0,29.87,NE,41,0.0,0.0,44,0.00,,,0.00,,2013-06-10 19:53:00,
2013-06-10 15:03:00,78.0,52.0,29.87,NE,41,0.0,0.0,41,0.00,,,0.00,,2013-06-10 20:03:00,
2013-06-10 15:22:00,77.0,55.0,29.87,NE,41,0.0,0.0,46,0.00,,,0.00,,2013-06-10 20:22:00,
2013-06-10 15:32:00,77.0,52.0,29.87,NE,41,0.0,0.0,42,0.00,,,0.00,,2013-06-10 20:32:00,
2013-06-10 15:52:00,75.0,52.0,29.87,NE,41,0.0,0.0,44,0.00,,,0.00,,2013-06-10 20:52:00,
2013-06-10 16:02:00,75.0,52.0,29.87,NE,41,0.0,0.0,44,0.00,,,0.00,,2013-06-10 21:02:00,
2013-06-10 16:22:00,76.0,52.0,29.87,NE,41,0.0,0.0,43,0.00,,,0.00,,2013-06-10 21:22:00,
2013-06-10 16:33:00,78.0,51.0,29.87,NE,41,0.0,0.0,39,0.00,,,0.00,,2013-06-10 21:33:00,
2013-06-10 16:53:00,79.0,51.0,29.87,NE,41,0.0,0.0,38,0.00,,,0.00,,2013-06-10 21:53:00,
2013-06-10 17:03:00,77.0,51.0,29.87,NE,41,0.0,0.0,41,0.00,,,0.00,,2013-06-10 22:03:00,
2013-06-10 17:22:00,77.0,51.0,29.87,NE,41,0.0,0.0,41,0.00,,,0.00,,2013-06-10 22:22:00,
2013-06-10 17:33:00,77.0,52.0,29.87,NE,41,0.0,0.0,42,0.00,,,0.00,,2013-06-10 22:33:00,
2013-06-10 17:42:00,78.0,52.0,29.87,NE,41,0.0,0.0,40,0.00,,,0.00,,2013-06-10 22:42:00,
2013-06-10 17:52:00,78.0,52.0,29.87,NE,41,0.0,0.0,40,0.00,,,0.00,,2013-06-10 22:52:00,
2013-06-10 18:02:00,82.0,49.0,29.87,NE,41,0.0,0.0,32,0.00,,,0.00,,2013-06-10 23:02:00,
2013-06-10 18:12:00,78.0,50.0,29.87,NE,41,0.0,0.0,37,0.00,,,0.00,,2013-06-10 23:12:00,
2013-06-10 18:22:00,78.0,50.0,29.87,NE,41,0.0,0.0,37,0.00,,,0.00,,2013-06-10 23:22:00,
2013-06-10 18:32:00,76.0,51.0,29.87,NE,41,0.0,0.0,41,0.00,,,0.00,,2013-06-10 23:32:00,
2013-06-10 18:52:00,75.0,50.0,29.87,NE,41,0.0,0.0,42,0.00,,,0.00,,2013-06-10 23:52:00,
2013-06-10 19:12:00,74.0,50.0,29.87,NE,41,0.0,0.0,43,0.00,,,0.00,,2013-06-11 00:12:00,
2013-06-10 19:22:00,74.0,50.0,29.87,NE,41,0.0,0.0,43,0.00,,,0.00,,2013-06-11 00:22:00,
2013-06-10 19:32:00,73.0,50.0,29.87,NE,41,0.0,0.0,45,0.00,,,0.00,,2013-06-11 00:32:00,
2013-06-10 19:42:00,72.0,50.0,29.87,NE,41,0.0,0.0,46,0.00,,,0.00,,2013-06-11 00:42:00,
2013-06-10 19:52:00,72.0,50.0,29.87,NE,41,0.0,0.0,46,0.00,,,0.00,,2013-06-11 00:52:00,
2013-06-10 20:02:00,72.0,51.0,29.87,NE,41,0.0,0.0,47,0.00,,,0.00,,2013-06-11 01:02:00,
2013-06-10 20:12:00,71.0,51.0,29.87,NE,41,0.0,0.0,49,0.00,,,0.00,,2013-06-11 01:12:00,
2013-06-10 20:22:00,71.0,51.0,29.87,NE,41,0.0,0.0,49,0.00,,,0.00,,2013-06-11 01:22:00,
2013-06-10 20:32:00,71.0,52.0,29.87,NE,41,0.0,0.0,51,0.00,,,0.00,,2013-06-11 01:32:00,
2013-06-10 20:42:00,70.0,52.0,29.87,NE,41,0.0,0.0,52,0.00,,,0.00,,2013-06-11 01:42:00,
2013-06-10 20:52:00,70.0,52.0,29.87,NE,41,0.0,0.0,52,0.00,,,0.00,,2013-06-11 01:52:00,
2013-06-10 21:02:00,69.0,54.0,29.87,SE,144,0.0,0.0,58,0.00,,,0.00,,2013-06-11 02:02:00,
2013-06-10 21:12:00,69.0,54.0,29.87,SE,144,0.0,0.0,58,0.00,,,0.00,,2013-06-11 02:12:00,
2013-06-10 21:22:00,67.0,52.0,29.87,SE,144,0.0,0.0,59,0.00,,,0.00,,2013-06-11 02:22:00,
2013-06-10 21:32:00,66.0,53.0,29.87,SE,144,0.0,0.0,62,0.00,,,0.00,,2013-06-11 02:32:00,
2013-06-10 21:42:00,66.0,55.0,29.87,SE,144,0.0,0.0,67,0.00,,,0.00,,2013-06-11 02:42:00,
2013-06-10 21:52:00,66.0,55.0,29.87,SE,144,0.0,0.0,67,0.00,,,0.00,,2013-06-11 02:52:00,
2013-06-10 22:02:00,65.0,55.0,29.87,SE,144,0.0,0.0,71,0.00,,,0.00,,2013-06-11 03:02:00,
2013-06-10 22:12:00,64.0,54.0,29.87,SE,144,0.0,0.0,71,0.00,,,0.00,,2013-06-11 03:12:00,
2013-06-10 22:22:00,64.0,54.0,29.87,SE,144,0.0,0.0,71,0.00,,,0.00,,2013-06-11 03:22:00,
2013-06-10 22:32:00,64.0,55.0,29.87,SE,144,0.0,0.0,72,0.00,,,0.00,,2013-06-11 03:32:00,
2013-06-10 22:43:00,63.0,54.0,29.87,SE,144,0.0,0.0,73,0.00,,,0.00,,2013-06-11 03:43:00,
2013-06-10 22:53:00,63.0,54.0,29.87,SE,144,0.0,0.0,73,0.00,,,0.00,,2013-06-11 03:53:00,
2013-06-10 23:02:00,63.0,55.0,29.87,SE,144,0.0,0.0,74,0.00,,,0.00,,2013-06-11 04:02:00,
2013-06-10 23:12:00,63.0,55.0,29.87,SE,144,0.0,0.0,74,0.00,,,0.00,,2013-06-11 04:12:00,
2013-06-10 23:23:00,63.0,56.0,29.90,SE,144,0.0,0.0,77,0.00,,,0.00,,2013-06-11 04:23:00,
2013-06-10 23:33:00,62.0,55.0,29.90,SE,144,0.0,0.0,78,0.00,,,0.00,,2013-06-11 04:33:00,
2013-06-10 23:42:00,62.0,55.0,29.90,SE,144,0.0,0.0,78,0.00,,,0.00,,2013-06-11 04:42:00,
2013-06-10 23:53:00,62.0,55.0,29.90,SE,144,0.0,0.0,78,0.00,,,0.00,,2013-06-11 04:53:00,